Maersk Launcher — OUHT2 — position and weather

sailwx.info

Track history (hours):
 
Tides and Currents Weather Stations Pressure Air Temp Water Temp Dewpoint Dewpoint Depression Visibility Wind Speed Wind Dir Waves Ship Positions

Maersk Launcher

Last reported at 2017-Nov-18 11:10 UTC. Time now 2017-Nov-18 11:54 UTC.
Position N 32°34' W 117°14'.

Length 90 m; draft 6.5 m.

Type: Tug. MMSI: 220580000.

Date/timePositionNaut miles runAvg speedWind from/ knotsBaromVisibWave heightAir tempDewpointWater temp
2017-Nov-18 11:10N 32°34' W 117°14'0 0.0
2017-Nov-18 10:40N 32°34' W 117°14'0 0.0
2017-Nov-18 00:46N 32°34' W 117°14'0 0.0
2017-Nov-17 14:10N 32°34' W 117°14'0 0.0
2017-Nov-17 13:58N 32°34' W 117°14'0 0.0
2017-Nov-17 12:16N 32°34' W 117°14'0 0.0
2017-Nov-17 11:58N 32°34' W 117°14'0 0.0
2017-Nov-17 02:04N 32°34' W 117°14'0 0.0
2017-Nov-16 20:40N 32°34' W 117°14'0 0.3
2017-Nov-16 20:28N 32°34' W 117°14'0 0.0
2017-Nov-16 07:04N 32°34' W 117°14'0 0.0
2017-Nov-16 00:40N 32°34' W 117°14'0 0.0
2017-Nov-15 21:34N 32°34' W 117°14'6 1.1
2017-Nov-15 16:12N 32°31' W 117°20'1 3.2
2017-Nov-15 15:54N 32°31' W 117°21'5 2.8
2017-Nov-15 14:06N 32°26' W 117°21'0 3.0
2017-Nov-15 14:00N 32°26' W 117°21'1 2.9
2017-Nov-15 13:30N 32°24' W 117°21'2 2.8
2017-Nov-15 12:51N 32°23' W 117°20'1 2.7
2017-Nov-15 12:30N 32°22' W 117°20'6 2.7
2017-Nov-15 10:23N 32°17' W 117°16'1 2.7
2017-Nov-15 09:53N 32°16' W 117°15'1 2.7
2017-Nov-15 09:30N 32°15' W 117°14'1 2.8
2017-Nov-15 09:00N 32°14' W 117°13'1 2.6
2017-Nov-15 08:30N 32°13' W 117°12'1 2.7
2017-Nov-15 08:00N 32°12' W 117°11'1 2.6
2017-Nov-15 07:30N 32°11' W 117°10'1 2.6
2017-Nov-15 07:00N 32°10' W 117°09'1 2.5
2017-Nov-15 06:30N 32°10' W 117°08'1 2.2
2017-Nov-15 06:00N 32°09' W 117°07'1 2.2
2017-Nov-15 05:30N 32°08' W 117°06'1 2.0
2017-Nov-15 05:00N 32°07' W 117°06'1 2.1
2017-Nov-15 04:28N 32°06' W 117°05'1 2.0
2017-Nov-15 04:00N 32°06' W 117°04'1 2.1
2017-Nov-15 03:30N 32°05' W 117°03'1 2.0
2017-Nov-15 03:00N 32°04' W 117°02'1 1.9
2017-Nov-15 02:30N 32°04' W 117°01'1 2.0
2017-Nov-15 02:00N 32°03' W 117°00'1 1.9
2017-Nov-15 01:30N 32°03' W 116°59'510.2
2017-Nov-15 01:00N 31°59' W 116°55'816.3
2017-Nov-15 00:30N 31°53' W 116°48'814.1
2017-Nov-14 23:58N 31°48' W 116°41'2 2.3
2017-Nov-14 23:05N 31°47' W 116°40'0 0.1
2017-Nov-14 22:59N 31°47' W 116°40'0 0.1
2017-Nov-14 22:30N 31°47' W 116°40'2 4.1
2017-Nov-14 22:00N 31°48' W 116°42'10 7.9
2017-Nov-14 20:48N 31°54' W 116°50'3 8.5
2017-Nov-14 20:30N 31°56' W 116°52'4 7.9
2017-Nov-14 19:59N 31°59' W 116°56'3 7.1
2017-Nov-14 19:30N 32°01' W 116°58'4 7.2
2017-Nov-14 19:00N 32°04' W 117°01'4 7.2
2017-Nov-14 18:30N 32°06' W 117°04'3 7.0
2017-Nov-14 18:00N 32°09' W 117°07'3 7.0
2017-Nov-14 17:30N 32°11' W 117°10'3 6.5
2017-Nov-14 17:00N 32°14' W 117°13'3 6.4
2017-Nov-14 16:30N 32°16' W 117°15'3 6.4
2017-Nov-14 16:00N 32°18' W 117°18'3 4.8
2017-Nov-14 15:28N 32°21' W 117°19'1 1.8
2017-Nov-14 14:55N 32°20' W 117°20'0 0.9
2017-Nov-14 14:30N 32°21' W 117°20'0 0.7
2017-Nov-14 13:58N 32°21' W 117°20'1 0.8
2017-Nov-14 13:19N 32°21' W 117°20'0 0.7
2017-Nov-14 13:00N 32°22' W 117°21'0 0.8
2017-Nov-14 12:30N 32°22' W 117°21'0 0.8
2017-Nov-14 12:00N 32°22' W 117°21'0 0.8
2017-Nov-14 11:29N 32°23' W 117°21'0 0.9
2017-Nov-14 11:00N 32°23' W 117°21'0 0.6
2017-Nov-14 10:30N 32°23' W 117°21'1 1.7
2017-Nov-14 10:01N 32°24' W 117°20'0 0.8
2017-Nov-14 09:30N 32°24' W 117°20'0 0.7
2017-Nov-14 08:59N 32°24' W 117°21'1 0.8
2017-Nov-14 07:49N 32°25' W 117°22'1 0.8
2017-Nov-14 06:39N 32°25' W 117°22'0 0.6
2017-Nov-14 06:30N 32°25' W 117°22'0 0.9
2017-Nov-14 06:00N 32°26' W 117°23'0 1.0
2017-Nov-14 05:30N 32°26' W 117°23'1 1.0
2017-Nov-14 05:00N 32°27' W 117°23'1 1.2
2017-Nov-14 04:30N 32°27' W 117°24'1 2.4
2017-Nov-14 03:59N 32°28' W 117°24'2 3.2
2017-Nov-14 03:17N 32°30' W 117°21'1 3.0
2017-Nov-14 02:58N 32°30' W 117°20'1 3.1
2017-Nov-14 02:30N 32°31' W 117°19'1 2.8
2017-Nov-14 02:00N 32°32' W 117°18'1 2.9
2017-Nov-14 01:30N 32°32' W 117°16'1 2.8
2017-Nov-14 01:01N 32°33' W 117°15'2 3.8
2017-Nov-14 00:31N 32°34' W 117°13'0 0.0
2017-Nov-13 23:31N 32°34' W 117°13'0 0.0
2017-Nov-13 23:13N 32°34' W 117°13'0 0.0
2017-Nov-13 22:52N 32°34' W 117°13'0 0.0
2017-Nov-13 21:43N 32°34' W 117°13'0 0.0
2017-Nov-13 01:58N 32°34' W 117°13'0 0.0
2017-Nov-13 01:28N 32°34' W 117°13'0 0.0
2017-Nov-13 00:58N 32°34' W 117°13'0 0.0
2017-Nov-13 00:28N 32°34' W 117°13'0 0.0
2017-Nov-12 23:58N 32°34' W 117°13'0 0.0
2017-Nov-12 23:25N 32°34' W 117°13'0 0.0
2017-Nov-12 22:55N 32°34' W 117°13'0 0.0
2017-Nov-12 22:28N 32°34' W 117°13'0 0.0
2017-Nov-12 21:55N 32°34' W 117°13'0 0.0
2017-Nov-12 21:28N 32°34' W 117°13'0 0.0
2017-Nov-12 20:58N 32°34' W 117°13'0 0.0
2017-Nov-12 20:28N 32°34' W 117°13'0 0.0
2017-Nov-12 19:55N 32°34' W 117°13'0 0.0
2017-Nov-12 19:28N 32°34' W 117°13'0 0.0
2017-Nov-12 18:55N 32°34' W 117°13'0 0.0
2017-Nov-12 18:28N 32°34' W 117°13'0 0.0
2017-Nov-12 17:58N 32°34' W 117°13'0 0.0
2017-Nov-12 17:28N 32°34' W 117°13'0 0.0
2017-Nov-12 16:55N 32°34' W 117°13'0 0.0
2017-Nov-12 16:22N 32°34' W 117°13'0 0.1
2017-Nov-12 15:58N 32°34' W 117°13'0 0.1
2017-Nov-12 15:22N 32°34' W 117°13'0 0.0
2017-Nov-12 14:58N 32°34' W 117°13'0 0.0
2017-Nov-12 14:25N 32°34' W 117°13'0 0.0
2017-Nov-12 13:52N 32°34' W 117°13'0 0.0
2017-Nov-12 13:19N 32°34' W 117°13'0 0.1
2017-Nov-12 12:58N 32°34' W 117°13'0 0.0
2017-Nov-12 12:28N 32°34' W 117°13'0 0.0
2017-Nov-12 11:58N 32°34' W 117°13'0 0.1
2017-Nov-12 11:16N 32°34' W 117°13'0 0.0
2017-Nov-12 10:52N 32°34' W 117°13'0 0.0
2017-Nov-12 10:28N 32°34' W 117°13'0 0.0
2017-Nov-12 09:58N 32°34' W 117°13'0 0.0
2017-Nov-12 09:19N 32°34' W 117°13'0 0.0
2017-Nov-12 08:58N 32°34' W 117°13'0 0.0
2017-Nov-12 08:28N 32°34' W 117°13'0 0.0
2017-Nov-12 07:58N 32°34' W 117°13'0 0.0
2017-Nov-12 07:28N 32°34' W 117°13'0 0.0
2017-Nov-12 06:58N 32°34' W 117°13'0 0.0
2017-Nov-12 06:28N 32°34' W 117°13'0 0.0
2017-Nov-12 05:10N 32°34' W 117°13'0 0.0
2017-Nov-12 04:55N 32°34' W 117°13'0 0.0
2017-Nov-12 04:28N 32°34' W 117°13'0 0.0
2017-Nov-12 03:58N 32°34' W 117°13'0 0.0
2017-Nov-12 03:28N 32°34' W 117°13'0 0.0
2017-Nov-12 02:58N 32°34' W 117°13'0 0.0
2017-Nov-12 02:25N 32°34' W 117°13'0 0.0
2017-Nov-12 01:55N 32°34' W 117°13'0 0.0
2017-Nov-12 01:28N 32°34' W 117°13'0 0.0
2017-Nov-12 00:52N 32°34' W 117°13'0 0.0
2017-Nov-12 00:19N 32°34' W 117°13'0 0.0
2017-Nov-11 22:40N 32°34' W 117°13'0 0.0
2017-Nov-11 22:22N 32°34' W 117°13'0 0.0
2017-Nov-11 21:52N 32°34' W 117°13'0 0.0
2017-Nov-11 21:10N 32°34' W 117°13'0 0.0
2017-Nov-11 20:46N 32°34' W 117°13'0 0.0
2017-Nov-11 19:37N 32°34' W 117°13'0 0.0
2017-Nov-11 19:28N 32°34' W 117°13'0 0.0
2017-Nov-11 18:46N 32°34' W 117°13'0 0.0
2017-Nov-11 17:04N 32°34' W 117°13'0 0.0
2017-Nov-11 16:52N 32°34' W 117°13'0 0.0
2017-Nov-11 15:04N 32°34' W 117°13'0 0.0
2017-Nov-11 14:49N 32°34' W 117°13'0 0.0
2017-Nov-11 14:04N 32°34' W 117°13'0 0.0
2017-Nov-11 00:40N 32°34' W 117°13'0 0.0
2017-Nov-11 00:19N 32°34' W 117°13'0 0.0
2017-Nov-10 23:49N 32°34' W 117°13'0 0.1
2017-Nov-10 23:28N 32°34' W 117°13'0 0.1
2017-Nov-10 22:52N 32°34' W 117°13'0 0.0
2017-Nov-10 21:43N 32°34' W 117°13'0 0.2
2017-Nov-10 21:28N 32°34' W 117°13'0 0.0
2017-Nov-10 20:52N 32°34' W 117°13'0 0.0
2017-Nov-10 17:58N 32°34' W 117°13'0 0.0
2017-Nov-10 17:28N 32°34' W 117°13'0 0.0
2017-Nov-10 16:58N 32°34' W 117°13'0 0.0
2017-Nov-10 16:28N 32°34' W 117°13'0 0.0
2017-Nov-10 15:58N 32°34' W 117°13'0 0.0
2017-Nov-10 15:28N 32°34' W 117°13'0 0.0
2017-Nov-10 14:58N 32°34' W 117°13'0 0.0
2017-Nov-10 14:28N 32°34' W 117°13'0 0.0
2017-Nov-10 13:52N 32°34' W 117°13'0 0.1
2017-Nov-10 13:19N 32°34' W 117°13'0 0.0
2017-Nov-10 12:55N 32°34' W 117°13'0 0.0
2017-Nov-10 12:28N 32°34' W 117°13'0 0.0
2017-Nov-10 11:34N 32°34' W 117°13'0 0.1
2017-Nov-10 11:28N 32°34' W 117°13'0 0.0
2017-Nov-10 10:58N 32°34' W 117°13'0 0.1
2017-Nov-10 10:25N 32°34' W 117°13'0 0.0
2017-Nov-10 09:55N 32°34' W 117°13'0 0.0
2017-Nov-10 09:25N 32°34' W 117°13'0 0.0
2017-Nov-10 08:49N 32°34' W 117°13'0 0.0
2017-Nov-10 08:28N 32°34' W 117°13'0 0.0
2017-Nov-10 07:58N 32°34' W 117°13'0 0.0
2017-Nov-10 07:28N 32°34' W 117°13'0 0.0
2017-Nov-10 06:43N 32°34' W 117°13'0 0.0
2017-Nov-10 06:28N 32°34' W 117°13'0 0.0
2017-Nov-10 05:55N 32°34' W 117°13'0 0.0
2017-Nov-10 05:19N 32°34' W 117°13'0 0.0
2017-Nov-10 04:58N 32°34' W 117°13'0 0.0
2017-Nov-10 04:25N 32°34' W 117°13'0 0.0
2017-Nov-10 03:52N 32°34' W 117°13'0 0.0
2017-Nov-10 03:28N 32°34' W 117°13'0 0.0
2017-Nov-10 02:58N 32°34' W 117°13'0 0.0
2017-Nov-10 02:16N 32°34' W 117°13'0 0.0
2017-Nov-10 01:58N 32°34' W 117°13'0 0.0
2017-Nov-10 01:28N 32°34' W 117°13'0 0.0
2017-Nov-10 00:58N 32°34' W 117°13'0 0.0
2017-Nov-09 23:49N 32°34' W 117°13'0 0.0
2017-Nov-09 20:34N 32°34' W 117°13'0 0.0
2017-Nov-09 20:10N 32°34' W 117°13'0 0.0
2017-Nov-09 19:52N 32°34' W 117°13'1 1.6
2017-Nov-09 19:30N 32°34' W 117°13'510.2
2017-Nov-09 18:59N 32°40' W 117°14'  
Track history (hours):
 
Tides and Currents Weather Stations Pressure Air Temp Water Temp Dewpoint Dewpoint Depression Visibility Wind Speed Wind Dir Waves Ship Positions

Maersk Launcher

Last reported at 2017-Nov-18 11:10 UTC. Time now 2017-Nov-18 11:54 UTC.
Position N 32°34' W 117°14'.

Length 90 m; draft 6.5 m.

Type: Tug. MMSI: 220580000.

Date/timePositionNaut miles runAvg speedWind from/ knotsBaromVisibWave heightAir tempDewpointWater temp
2017-Nov-18 11:10N 32°34' W 117°14'0 0.0
2017-Nov-18 10:40N 32°34' W 117°14'0 0.0
2017-Nov-18 00:46N 32°34' W 117°14'0 0.0
2017-Nov-17 14:10N 32°34' W 117°14'0 0.0
2017-Nov-17 13:58N 32°34' W 117°14'0 0.0
2017-Nov-17 12:16N 32°34' W 117°14'0 0.0
2017-Nov-17 11:58N 32°34' W 117°14'0 0.0
2017-Nov-17 02:04N 32°34' W 117°14'0 0.0
2017-Nov-16 20:40N 32°34' W 117°14'0 0.3
2017-Nov-16 20:28N 32°34' W 117°14'0 0.0
2017-Nov-16 07:04N 32°34' W 117°14'0 0.0
2017-Nov-16 00:40N 32°34' W 117°14'0 0.0
2017-Nov-15 21:34N 32°34' W 117°14'6 1.1
2017-Nov-15 16:12N 32°31' W 117°20'1 3.2
2017-Nov-15 15:54N 32°31' W 117°21'5 2.8
2017-Nov-15 14:06N 32°26' W 117°21'0 3.0
2017-Nov-15 14:00N 32°26' W 117°21'1 2.9
2017-Nov-15 13:30N 32°24' W 117°21'2 2.8
2017-Nov-15 12:51N 32°23' W 117°20'1 2.7
2017-Nov-15 12:30N 32°22' W 117°20'6 2.7
2017-Nov-15 10:23N 32°17' W 117°16'1 2.7
2017-Nov-15 09:53N 32°16' W 117°15'1 2.7
2017-Nov-15 09:30N 32°15' W 117°14'1 2.8
2017-Nov-15 09:00N 32°14' W 117°13'1 2.6
2017-Nov-15 08:30N 32°13' W 117°12'1 2.7
2017-Nov-15 08:00N 32°12' W 117°11'1 2.6
2017-Nov-15 07:30N 32°11' W 117°10'1 2.6
2017-Nov-15 07:00N 32°10' W 117°09'1 2.5
2017-Nov-15 06:30N 32°10' W 117°08'1 2.2
2017-Nov-15 06:00N 32°09' W 117°07'1 2.2
2017-Nov-15 05:30N 32°08' W 117°06'1 2.0
2017-Nov-15 05:00N 32°07' W 117°06'1 2.1
2017-Nov-15 04:28N 32°06' W 117°05'1 2.0
2017-Nov-15 04:00N 32°06' W 117°04'1 2.1
2017-Nov-15 03:30N 32°05' W 117°03'1 2.0
2017-Nov-15 03:00N 32°04' W 117°02'1 1.9
2017-Nov-15 02:30N 32°04' W 117°01'1 2.0
2017-Nov-15 02:00N 32°03' W 117°00'1 1.9
2017-Nov-15 01:30N 32°03' W 116°59'510.2
2017-Nov-15 01:00N 31°59' W 116°55'816.3
2017-Nov-15 00:30N 31°53' W 116°48'814.1
2017-Nov-14 23:58N 31°48' W 116°41'2 2.3
2017-Nov-14 23:05N 31°47' W 116°40'0 0.1
2017-Nov-14 22:59N 31°47' W 116°40'0 0.1
2017-Nov-14 22:30N 31°47' W 116°40'2 4.1
2017-Nov-14 22:00N 31°48' W 116°42'10 7.9
2017-Nov-14 20:48N 31°54' W 116°50'3 8.5
2017-Nov-14 20:30N 31°56' W 116°52'4 7.9
2017-Nov-14 19:59N 31°59' W 116°56'3 7.1
2017-Nov-14 19:30N 32°01' W 116°58'4 7.2
2017-Nov-14 19:00N 32°04' W 117°01'4 7.2
2017-Nov-14 18:30N 32°06' W 117°04'3 7.0
2017-Nov-14 18:00N 32°09' W 117°07'3 7.0
2017-Nov-14 17:30N 32°11' W 117°10'3 6.5
2017-Nov-14 17:00N 32°14' W 117°13'3 6.4
2017-Nov-14 16:30N 32°16' W 117°15'3 6.4
2017-Nov-14 16:00N 32°18' W 117°18'3 4.8
2017-Nov-14 15:28N 32°21' W 117°19'1 1.8
2017-Nov-14 14:55N 32°20' W 117°20'0 0.9
2017-Nov-14 14:30N 32°21' W 117°20'0 0.7
2017-Nov-14 13:58N 32°21' W 117°20'1 0.8
2017-Nov-14 13:19N 32°21' W 117°20'0 0.7
2017-Nov-14 13:00N 32°22' W 117°21'0 0.8
2017-Nov-14 12:30N 32°22' W 117°21'0 0.8
2017-Nov-14 12:00N 32°22' W 117°21'0 0.8
2017-Nov-14 11:29N 32°23' W 117°21'0 0.9
2017-Nov-14 11:00N 32°23' W 117°21'0 0.6
2017-Nov-14 10:30N 32°23' W 117°21'1 1.7
2017-Nov-14 10:01N 32°24' W 117°20'0 0.8
2017-Nov-14 09:30N 32°24' W 117°20'0 0.7
2017-Nov-14 08:59N 32°24' W 117°21'1 0.8
2017-Nov-14 07:49N 32°25' W 117°22'1 0.8
2017-Nov-14 06:39N 32°25' W 117°22'0 0.6
2017-Nov-14 06:30N 32°25' W 117°22'0 0.9
2017-Nov-14 06:00N 32°26' W 117°23'0 1.0
2017-Nov-14 05:30N 32°26' W 117°23'1 1.0
2017-Nov-14 05:00N 32°27' W 117°23'1 1.2
2017-Nov-14 04:30N 32°27' W 117°24'1 2.4
2017-Nov-14 03:59N 32°28' W 117°24'2 3.2
2017-Nov-14 03:17N 32°30' W 117°21'1 3.0
2017-Nov-14 02:58N 32°30' W 117°20'1 3.1
2017-Nov-14 02:30N 32°31' W 117°19'1 2.8
2017-Nov-14 02:00N 32°32' W 117°18'1 2.9
2017-Nov-14 01:30N 32°32' W 117°16'1 2.8
2017-Nov-14 01:01N 32°33' W 117°15'2 3.8
2017-Nov-14 00:31N 32°34' W 117°13'0 0.0
2017-Nov-13 23:31N 32°34' W 117°13'0 0.0
2017-Nov-13 23:13N 32°34' W 117°13'0 0.0
2017-Nov-13 22:52N 32°34' W 117°13'0 0.0
2017-Nov-13 21:43N 32°34' W 117°13'0 0.0
2017-Nov-13 01:58N 32°34' W 117°13'0 0.0
2017-Nov-13 01:28N 32°34' W 117°13'0 0.0
2017-Nov-13 00:58N 32°34' W 117°13'0 0.0
2017-Nov-13 00:28N 32°34' W 117°13'0 0.0
2017-Nov-12 23:58N 32°34' W 117°13'0 0.0
2017-Nov-12 23:25N 32°34' W 117°13'0 0.0
2017-Nov-12 22:55N 32°34' W 117°13'0 0.0
2017-Nov-12 22:28N 32°34' W 117°13'0 0.0
2017-Nov-12 21:55N 32°34' W 117°13'0 0.0
2017-Nov-12 21:28N 32°34' W 117°13'0 0.0
2017-Nov-12 20:58N 32°34' W 117°13'0 0.0
2017-Nov-12 20:28N 32°34' W 117°13'0 0.0
2017-Nov-12 19:55N 32°34' W 117°13'0 0.0
2017-Nov-12 19:28N 32°34' W 117°13'0 0.0
2017-Nov-12 18:55N 32°34' W 117°13'0 0.0
2017-Nov-12 18:28N 32°34' W 117°13'0 0.0
2017-Nov-12 17:58N 32°34' W 117°13'0 0.0
2017-Nov-12 17:28N 32°34' W 117°13'0 0.0
2017-Nov-12 16:55N 32°34' W 117°13'0 0.0
2017-Nov-12 16:22N 32°34' W 117°13'0 0.1
2017-Nov-12 15:58N 32°34' W 117°13'0 0.1
2017-Nov-12 15:22N 32°34' W 117°13'0 0.0
2017-Nov-12 14:58N 32°34' W 117°13'0 0.0
2017-Nov-12 14:25N 32°34' W 117°13'0 0.0
2017-Nov-12 13:52N 32°34' W 117°13'0 0.0
2017-Nov-12 13:19N 32°34' W 117°13'0 0.1
2017-Nov-12 12:58N 32°34' W 117°13'0 0.0
2017-Nov-12 12:28N 32°34' W 117°13'0 0.0
2017-Nov-12 11:58N 32°34' W 117°13'0 0.1
2017-Nov-12 11:16N 32°34' W 117°13'0 0.0
2017-Nov-12 10:52N 32°34' W 117°13'0 0.0
2017-Nov-12 10:28N 32°34' W 117°13'0 0.0
2017-Nov-12 09:58N 32°34' W 117°13'0 0.0
2017-Nov-12 09:19N 32°34' W 117°13'0 0.0
2017-Nov-12 08:58N 32°34' W 117°13'0 0.0
2017-Nov-12 08:28N 32°34' W 117°13'0 0.0
2017-Nov-12 07:58N 32°34' W 117°13'0 0.0
2017-Nov-12 07:28N 32°34' W 117°13'0 0.0
2017-Nov-12 06:58N 32°34' W 117°13'0 0.0
2017-Nov-12 06:28N 32°34' W 117°13'0 0.0
2017-Nov-12 05:10N 32°34' W 117°13'0 0.0
2017-Nov-12 04:55N 32°34' W 117°13'0 0.0
2017-Nov-12 04:28N 32°34' W 117°13'0 0.0
2017-Nov-12 03:58N 32°34' W 117°13'0 0.0
2017-Nov-12 03:28N 32°34' W 117°13'0 0.0
2017-Nov-12 02:58N 32°34' W 117°13'0 0.0
2017-Nov-12 02:25N 32°34' W 117°13'0 0.0
2017-Nov-12 01:55N 32°34' W 117°13'0 0.0
2017-Nov-12 01:28N 32°34' W 117°13'0 0.0
2017-Nov-12 00:52N 32°34' W 117°13'0 0.0
2017-Nov-12 00:19N 32°34' W 117°13'0 0.0
2017-Nov-11 22:40N 32°34' W 117°13'0 0.0
2017-Nov-11 22:22N 32°34' W 117°13'0 0.0
2017-Nov-11 21:52N 32°34' W 117°13'0 0.0
2017-Nov-11 21:10N 32°34' W 117°13'0 0.0
2017-Nov-11 20:46N 32°34' W 117°13'0 0.0
2017-Nov-11 19:37N 32°34' W 117°13'0 0.0
2017-Nov-11 19:28N 32°34' W 117°13'0 0.0
2017-Nov-11 18:46N 32°34' W 117°13'0 0.0
2017-Nov-11 17:04N 32°34' W 117°13'0 0.0
2017-Nov-11 16:52N 32°34' W 117°13'0 0.0
2017-Nov-11 15:04N 32°34' W 117°13'0 0.0
2017-Nov-11 14:49N 32°34' W 117°13'0 0.0
2017-Nov-11 14:04N 32°34' W 117°13'0 0.0
2017-Nov-11 00:40N 32°34' W 117°13'0 0.0
2017-Nov-11 00:19N 32°34' W 117°13'0 0.0
2017-Nov-10 23:49N 32°34' W 117°13'0 0.1
2017-Nov-10 23:28N 32°34' W 117°13'0 0.1
2017-Nov-10 22:52N 32°34' W 117°13'0 0.0
2017-Nov-10 21:43N 32°34' W 117°13'0 0.2
2017-Nov-10 21:28N 32°34' W 117°13'0 0.0
2017-Nov-10 20:52N 32°34' W 117°13'0 0.0
2017-Nov-10 17:58N 32°34' W 117°13'0 0.0
2017-Nov-10 17:28N 32°34' W 117°13'0 0.0
2017-Nov-10 16:58N 32°34' W 117°13'0 0.0
2017-Nov-10 16:28N 32°34' W 117°13'0 0.0
2017-Nov-10 15:58N 32°34' W 117°13'0 0.0
2017-Nov-10 15:28N 32°34' W 117°13'0 0.0
2017-Nov-10 14:58N 32°34' W 117°13'0 0.0
2017-Nov-10 14:28N 32°34' W 117°13'0 0.0
2017-Nov-10 13:52N 32°34' W 117°13'0 0.1
2017-Nov-10 13:19N 32°34' W 117°13'0 0.0
2017-Nov-10 12:55N 32°34' W 117°13'0 0.0
2017-Nov-10 12:28N 32°34' W 117°13'0 0.0
2017-Nov-10 11:34N 32°34' W 117°13'0 0.1
2017-Nov-10 11:28N 32°34' W 117°13'0 0.0
2017-Nov-10 10:58N 32°34' W 117°13'0 0.1
2017-Nov-10 10:25N 32°34' W 117°13'0 0.0
2017-Nov-10 09:55N 32°34' W 117°13'0 0.0
2017-Nov-10 09:25N 32°34' W 117°13'0 0.0
2017-Nov-10 08:49N 32°34' W 117°13'0 0.0
2017-Nov-10 08:28N 32°34' W 117°13'0 0.0
2017-Nov-10 07:58N 32°34' W 117°13'0 0.0
2017-Nov-10 07:28N 32°34' W 117°13'0 0.0
2017-Nov-10 06:43N 32°34' W 117°13'0 0.0
2017-Nov-10 06:28N 32°34' W 117°13'0 0.0
2017-Nov-10 05:55N 32°34' W 117°13'0 0.0
2017-Nov-10 05:19N 32°34' W 117°13'0 0.0
2017-Nov-10 04:58N 32°34' W 117°13'0 0.0
2017-Nov-10 04:25N 32°34' W 117°13'0 0.0
2017-Nov-10 03:52N 32°34' W 117°13'0 0.0
2017-Nov-10 03:28N 32°34' W 117°13'0 0.0
2017-Nov-10 02:58N 32°34' W 117°13'0 0.0
2017-Nov-10 02:16N 32°34' W 117°13'0 0.0
2017-Nov-10 01:58N 32°34' W 117°13'0 0.0
2017-Nov-10 01:28N 32°34' W 117°13'0 0.0
2017-Nov-10 00:58N 32°34' W 117°13'0 0.0
2017-Nov-09 23:49N 32°34' W 117°13'0 0.0
2017-Nov-09 20:34N 32°34' W 117°13'0 0.0
2017-Nov-09 20:10N 32°34' W 117°13'0 0.0
2017-Nov-09 19:52N 32°34' W 117°13'1 1.6
2017-Nov-09 19:30N 32°34' W 117°13'510.2
2017-Nov-09 18:59N 32°40' W 117°14'  

Dump ship's entire track history